Time;durP1;ratioP1;P1;durP2;ratioP2;P2;SDS_P1;SDS_P2;PMS_P1;PMS_P2;Temp;Humidity;BMP_temperature;BMP_pressure;BME280_temperature;BME280_humidity;BME280_pressure;Samples;Min_cycle;Max_cycle;Signal;HPM_P1;HPM_P2
2023/01/09 00:00:49;;;;;;;2.30;1.70;;;9.40;99.60;;;;;;5074158;28;20421;-73
2023/01/09 00:03:15;;;;;;;2.28;1.70;;;9.40;96.80;;;;;;5074956;28;20381;-74
2023/01/09 00:05:41;;;;;;;1.97;1.70;;;9.40;95.00;;;;;;5073804;28;20449;-73
2023/01/09 00:08:06;;;;;;;5.63;1.67;;;9.30;95.40;;;;;;5072828;28;20423;-73
2023/01/09 00:10:32;;;;;;;3.37;1.50;;;9.30;87.70;;;;;;5067841;28;20381;-73
2023/01/09 00:12:58;;;;;;;3.07;1.33;;;9.20;87.10;;;;;;5058198;28;20858;-73
2023/01/09 00:15:23;;;;;;;2.10;1.30;;;9.20;89.60;;;;;;5052970;28;20890;-73
2023/01/09 00:17:49;;;;;;;2.43;1.30;;;9.20;85.90;;;;;;5056858;28;20432;-73
2023/01/09 00:20:15;;;;;;;3.73;1.40;;;9.00;88.30;;;;;;5064976;28;20460;-73
2023/01/09 00:22:41;;;;;;;3.30;1.90;;;8.90;90.20;;;;;;5060390;28;20386;-73
2023/01/09 00:25:07;;;;;;;2.72;1.00;;;8.90;89.50;;;;;;5055579;28;20396;-74
2023/01/09 00:27:33;;;;;;;4.20;2.13;;;8.90;86.70;;;;;;5054671;28;20453;-74
2023/01/09 00:29:59;;;;;;;4.30;1.40;;;8.90;85.60;;;;;;5051594;28;20411;-73
2023/01/09 00:32:25;;;;;;;1.20;1.00;;;8.90;84.40;;;;;;5052220;28;20381;-73
2023/01/09 00:34:51;;;;;;;2.53;1.10;;;8.90;83.90;;;;;;5052629;28;20374;-74
2023/01/09 00:37:17;;;;;;;2.40;0.93;;;8.80;83.30;;;;;;5051500;28;20401;-74
2023/01/09 00:39:42;;;;;;;1.80;0.83;;;8.90;81.70;;;;;;5033412;28;20393;-72
2023/01/09 00:42:13;;;;;;;1.30;1.07;;;8.80;82.60;;;;;;5050692;28;20393;-73
2023/01/09 00:45:01;;;;;;;2.90;1.10;;;8.80;83.90;;;;;;5051071;28;20389;-73
2023/01/09 00:47:37;;;;;;;3.75;1.10;;;8.70;85.80;;;;;;5051460;28;20464;-73
2023/01/09 00:50:07;;;;;;;1.80;1.00;;;8.80;87.90;;;;;;5033092;28;20817;-73
2023/01/09 00:52:34;;;;;;;2.38;1.33;;;8.70;89.10;;;;;;5050911;28;20382;-73
2023/01/09 00:55:01;;;;;;;2.10;1.20;;;8.70;91.00;;;;;;5033035;28;21117;-73
2023/01/09 00:57:27;;;;;;;2.55;0.90;;;8.80;91.20;;;;;;5051261;28;20424;-73
2023/01/09 00:59:53;;;;;;;4.20;1.40;;;8.70;92.60;;;;;;5051706;28;20409;-73
2023/01/09 01:02:18;;;;;;;1.60;1.00;;;8.70;94.30;;;;;;5050861;28;20751;-73
2023/01/09 01:07:37;;;;;;;1.25;1.15;;;8.70;92.00;;;;;;5051265;28;20431;-74
2023/01/09 01:10:04;;;;;;;1.63;1.00;;;8.60;93.80;;;;;;5050759;28;20401;-76
2023/01/09 01:12:29;;;;;;;2.70;1.30;;;8.50;94.60;;;;;;5050690;28;20413;-74
2023/01/09 01:14:55;;;;;;;3.47;2.20;;;8.40;93.00;;;;;;5050716;28;20412;-74
2023/01/09 01:17:21;;;;;;;2.40;1.40;;;8.40;92.40;;;;;;5050939;28;20381;-72
2023/01/09 01:19:46;;;;;;;2.30;1.13;;;8.40;93.80;;;;;;5054773;28;20429;-74
2023/01/09 01:22:12;;;;;;;1.30;1.20;;;8.30;95.40;;;;;;5054444;28;20420;-74
2023/01/09 01:24:37;;;;;;;2.90;1.00;;;8.20;96.90;;;;;;5054569;28;20393;-74
2023/01/09 01:27:03;;;;;;;2.20;1.20;;;8.20;97.10;;;;;;5054277;28;20460;-74
2023/01/09 01:29:28;;;;;;;1.50;1.37;;;8.20;97.30;;;;;;5054412;28;20409;-74
2023/01/09 01:31:54;;;;;;;1.53;1.00;;;8.20;97.60;;;;;;5054551;28;20587;-74
2023/01/09 01:34:19;;;;;;;1.10;0.90;;;8.20;98.20;;;;;;5054757;28;20378;-74
2023/01/09 01:36:45;;;;;;;1.70;1.30;;;8.20;97.40;;;;;;5054606;28;20943;-72
2023/01/09 01:39:11;;;;;;;1.80;0.90;;;8.20;95.90;;;;;;5036615;28;20605;-73
2023/01/09 01:41:37;;;;;;;5.13;3.20;;;8.20;97.00;;;;;;5054387;28;20472;-72
2023/01/09 01:44:05;;;;;;;1.85;1.48;;;8.30;98.40;;;;;;5054348;28;20815;-73
2023/01/09 01:46:32;;;;;;;3.00;1.15;;;8.40;94.80;;;;;;5054462;28;20413;-73
2023/01/09 01:49:12;;;;;;;2.60;1.20;;;8.40;93.20;;;;;;5053814;28;20409;-73
2023/01/09 01:51:45;;;;;;;2.45;1.10;;;8.30;94.40;;;;;;5054025;28;20860;-73
2023/01/09 01:54:22;;;;;;;1.50;1.33;;;8.30;93.30;;;;;;5036334;28;20396;-73
2023/01/09 01:56:55;;;;;;;1.38;0.90;;;8.40;92.70;;;;;;5054050;28;20472;-73
2023/01/09 01:59:33;;;;;;;1.30;1.00;;;8.50;88.40;;;;;;5053970;28;20409;-73
2023/01/09 02:02:00;;;;;;;4.20;1.20;;;8.50;88.40;;;;;;5053271;28;20381;-73
2023/01/09 02:04:27;;;;;;;1.10;0.70;;;8.60;87.30;;;;;;5053774;28;20469;-73
2023/01/09 02:06:57;;;;;;;2.80;0.90;;;8.50;85.90;;;;;;5053553;28;20443;-74
2023/01/09 02:09:24;;;;;;;3.00;1.10;;;8.60;85.70;;;;;;5053553;28;20463;-73
2023/01/09 02:11:55;;;;;;;1.20;0.80;;;8.60;85.90;;;;;;5035406;28;20397;-73
2023/01/09 02:14:27;;;;;;;2.20;0.70;;;8.60;85.10;;;;;;5053258;28;20465;-73
2023/01/09 02:17:22;;;;;;;1.90;0.88;;;8.50;86.70;;;;;;5053445;28;20922;-73
2023/01/09 02:20:12;;;;;;;2.30;0.70;;;8.50;86.00;;;;;;5022296;28;20424;-73
2023/01/09 02:22:59;;;;;;;2.80;1.00;;;8.40;85.30;;;;;;5053968;28;20893;-74
2023/01/09 02:25:52;;;;;;;4.00;0.90;;;8.30;87.00;;;;;;5055445;28;20401;-74
2023/01/09 02:28:30;;;;;;;1.98;0.90;;;8.20;88.00;;;;;;5053429;28;20389;-73
2023/01/09 02:31:12;;;;;;;1.60;0.85;;;8.20;86.40;;;;;;5052814;28;20383;-73
2023/01/09 02:34:01;;;;;;;1.90;1.00;;;8.10;87.70;;;;;;5053674;28;20393;-74
2023/01/09 02:37:05;;;;;;;1.77;1.00;;;8.00;88.90;;;;;;5053272;28;20389;-73
2023/01/09 02:39:50;;;;;;;1.90;0.70;;;7.90;91.40;;;;;;5053373;28;20374;-73
2023/01/09 02:42:24;;;;;;;3.70;1.10;;;7.80;93.20;;;;;;5051667;28;20932;-73
2023/01/09 02:44:50;;;;;;;2.00;1.00;;;7.80;95.50;;;;;;5052932;28;20889;-73
2023/01/09 02:47:15;;;;;;;2.28;1.20;;;7.80;96.60;;;;;;5053015;28;20503;-73
2023/01/09 02:49:52;;;;;;;3.70;1.20;;;7.90;96.20;;;;;;5052679;28;20437;-73
2023/01/09 02:52:55;;;;;;;1.90;1.10;;;8.00;94.50;;;;;;5052813;28;20365;-73
2023/01/09 02:55:32;;;;;;;1.30;1.00;;;8.20;88.60;;;;;;5053002;28;20425;-73
2023/01/09 02:58:03;;;;;;;2.90;1.30;;;8.30;87.80;;;;;;5052881;28;20525;-73
2023/01/09 03:01:06;;;;;;;3.53;1.30;;;8.40;83.80;;;;;;5052867;28;20417;-73
2023/01/09 03:03:56;;;;;;;2.70;1.30;;;8.40;82.30;;;;;;5052775;28;20417;-73
2023/01/09 03:06:33;;;;;;;3.93;1.70;;;8.50;82.00;;;;;;5052504;28;20810;-73
2023/01/09 03:09:05;;;;;;;4.65;1.80;;;8.50;79.10;;;;;;5052363;28;20406;-73
2023/01/09 03:11:37;;;;;;;2.70;1.60;;;8.50;78.60;;;;;;5051879;28;20715;-73
2023/01/09 03:14:13;;;;;;;3.97;1.88;;;8.50;78.90;;;;;;5051951;28;20511;-73
2023/01/09 03:16:41;;;;;;;2.47;1.60;;;8.50;79.50;;;;;;5034075;28;20439;-74
2023/01/09 03:19:11;;;;;;;3.55;1.50;;;8.40;76.60;;;;;;5051945;28;20397;-74
2023/01/09 03:21:37;;;;;;;2.80;1.40;;;8.40;77.80;;;;;;5097375;22;20463;-73
2023/01/09 03:24:02;;;;;;;7.30;1.88;;;8.30;77.50;;;;;;5093112;28;20438;-73
2023/01/09 03:26:29;;;;;;;4.17;1.80;;;8.30;78.10;;;;;;5092719;28;20397;-72
2023/01/09 03:28:56;;;;;;;5.93;1.80;;;8.20;77.50;;;;;;5074548;28;20406;-72
2023/01/09 03:31:22;;;;;;;4.07;1.88;;;8.20;77.10;;;;;;5092380;28;20382;-74
2023/01/09 03:33:47;;;;;;;8.68;1.80;;;8.10;79.10;;;;;;5074573;28;20379;-74
2023/01/09 03:36:15;;;;;;;5.55;1.83;;;8.10;77.50;;;;;;5074869;28;20864;-72
2023/01/09 03:38:40;;;;;;;4.60;1.90;;;8.00;77.90;;;;;;5074691;28;20385;-72
2023/01/09 03:41:06;;;;;;;7.72;2.20;;;7.90;76.20;;;;;;5091927;28;20382;-73
2023/01/09 03:43:32;;;;;;;11.43;2.05;;;7.80;78.30;;;;;;5094318;28;20394;-74
2023/01/09 03:45:58;;;;;;;5.82;1.90;;;7.80;79.40;;;;;;5098579;28;20393;-72
2023/01/09 03:48:24;;;;;;;6.10;2.00;;;7.60;81.20;;;;;;5111990;28;20378;-72
2023/01/09 03:50:51;;;;;;;5.95;2.00;;;7.70;80.70;;;;;;5108765;28;20397;-73
2023/01/09 03:53:18;;;;;;;7.00;1.90;;;7.60;80.60;;;;;;5103898;28;20382;-72
2023/01/09 03:55:50;;;;;;;4.55;2.00;;;7.50;82.40;;;;;;5103181;28;20466;-72
2023/01/09 03:58:16;;;;;;;4.40;2.30;;;7.30;84.00;;;;;;5099486;28;20382;-72
2023/01/09 04:00:44;;;;;;;5.65;1.80;;;7.30;85.00;;;;;;5096157;28;20390;-75
2023/01/09 04:03:11;;;;;;;7.03;2.10;;;7.30;83.70;;;;;;5098820;28;20385;-75
2023/01/09 04:05:37;;;;;;;8.60;1.58;;;7.10;85.30;;;;;;5097650;28;20434;-72
2023/01/09 04:08:03;;;;;;;5.57;2.00;;;7.00;88.00;;;;;;5105762;28;20388;-72
2023/01/09 04:10:29;;;;;;;8.15;1.90;;;7.00;89.00;;;;;;5077055;28;20825;-71
2023/01/09 04:12:54;;;;;;;3.20;1.87;;;7.00;89.80;;;;;;5091358;28;20379;-75
2023/01/09 04:15:20;;;;;;;6.23;1.90;;;6.80;90.10;;;;;;5091487;28;20460;-73
2023/01/09 04:17:46;;;;;;;5.90;2.10;;;6.80;92.30;;;;;;5091557;28;20378;-73
2023/01/09 04:20:11;;;;;;;5.07;2.10;;;6.70;92.90;;;;;;5091325;28;20414;-72
2023/01/09 04:22:37;;;;;;;6.57;1.97;;;6.70;93.60;;;;;;5091327;28;20386;-74
2023/01/09 04:25:03;;;;;;;6.80;2.20;;;6.60;95.30;;;;;;5073431;28;20386;-74
2023/01/09 04:27:29;;;;;;;5.53;2.20;;;6.70;94.80;;;;;;5091607;28;20388;-74
2023/01/09 04:29:54;;;;;;;9.00;2.20;;;6.70;93.70;;;;;;5091255;28;20924;-73
2023/01/09 04:32:20;;;;;;;7.95;2.20;;;6.70;92.30;;;;;;5091279;28;20473;-75
2023/01/09 04:34:45;;;;;;;5.55;1.85;;;6.60;93.00;;;;;;5091398;28;20390;-74
2023/01/09 04:37:11;;;;;;;8.13;1.93;;;6.60;93.80;;;;;;5091391;28;20493;-72
2023/01/09 04:39:36;;;;;;;7.82;3.00;;;6.60;93.10;;;;;;5091742;28;20442;-73
2023/01/09 04:42:02;;;;;;;5.10;2.07;;;6.60;95.30;;;;;;5091528;28;20851;-72
2023/01/09 04:44:28;;;;;;;8.67;2.20;;;6.50;95.40;;;;;;5091539;28;20408;-73
2023/01/09 04:46:55;;;;;;;7.78;2.30;;;6.40;96.40;;;;;;5091661;28;20442;-74
2023/01/09 04:49:22;;;;;;;6.63;2.28;;;6.40;97.20;;;;;;5091372;28;20873;-73
2023/01/09 04:51:48;;;;;;;8.43;2.10;;;6.50;95.30;;;;;;5072650;28;20389;-72
2023/01/09 04:54:14;;;;;;;6.40;1.88;;;6.60;92.20;;;;;;5090642;28;20893;-74
2023/01/09 04:56:39;;;;;;;11.68;2.40;;;6.70;89.20;;;;;;5091285;28;20386;-73
2023/01/09 04:59:06;;;;;;;7.35;1.95;;;6.80;86.30;;;;;;5072945;28;20412;-73
2023/01/09 05:01:32;;;;;;;7.65;2.20;;;6.80;85.50;;;;;;5091253;28;20393;-75
2023/01/09 05:03:58;;;;;;;9.83;1.80;;;6.80;84.90;;;;;;5092924;28;20518;-75
2023/01/09 05:06:23;;;;;;;9.93;1.77;;;6.90;81.60;;;;;;5091840;28;20868;-73
2023/01/09 05:08:49;;;;;;;5.90;1.80;;;7.10;78.40;;;;;;5090889;28;20451;-73
2023/01/09 05:11:15;;;;;;;7.47;1.63;;;7.20;77.10;;;;;;5090511;28;20382;-73
2023/01/09 05:13:40;;;;;;;9.27;2.40;;;7.30;75.00;;;;;;5090925;28;20456;-73
2023/01/09 05:16:06;;;;;;;10.83;1.90;;;7.50;73.60;;;;;;5090961;28;20378;-73
2023/01/09 05:18:32;;;;;;;7.65;1.27;;;7.60;69.80;;;;;;5092945;28;20898;-73
2023/01/09 05:20:57;;;;;;;4.90;1.70;;;7.70;69.60;;;;;;5092602;28;20431;-73
2023/01/09 05:23:23;;;;;;;7.67;1.70;;;7.80;66.40;;;;;;5098206;28;20378;-73
2023/01/09 05:25:49;;;;;;;6.22;1.60;;;7.80;66.20;;;;;;5099039;28;20382;-74
2023/01/09 05:28:14;;;;;;;9.25;1.65;;;7.80;65.40;;;;;;5097387;28;20672;-74
2023/01/09 05:30:40;;;;;;;5.38;1.27;;;7.80;65.10;;;;;;5096907;28;20389;-72
2023/01/09 05:33:06;;;;;;;9.90;2.30;;;7.90;64.80;;;;;;5101644;28;20378;-71
2023/01/09 05:35:31;;;;;;;6.75;1.80;;;8.00;62.90;;;;;;5098045;28;20484;-72
2023/01/09 05:37:57;;;;;;;7.17;1.90;;;8.00;63.80;;;;;;5093819;28;20502;-74
2023/01/09 05:40:22;;;;;;;11.13;2.00;;;8.00;63.30;;;;;;5090893;28;20393;-72
2023/01/09 05:42:48;;;;;;;8.23;1.95;;;8.10;63.20;;;;;;5090553;28;20434;-72
2023/01/09 05:45:14;;;;;;;7.50;1.90;;;8.10;62.40;;;;;;5090719;28;20382;-72
2023/01/09 05:47:39;;;;;;;3.97;1.70;;;8.10;64.00;;;;;;5091929;28;20401;-73
2023/01/09 05:50:05;;;;;;;6.93;1.77;;;8.10;63.60;;;;;;5090867;28;20649;-73
2023/01/09 05:52:31;;;;;;;4.65;1.60;;;8.10;63.80;;;;;;5091089;28;20386;-73
2023/01/09 05:54:57;;;;;;;5.30;2.00;;;8.20;63.60;;;;;;5072707;28;20405;-72
2023/01/09 05:57:22;;;;;;;8.73;1.80;;;8.20;63.60;;;;;;5090934;28;20374;-74
2023/01/09 05:59:48;;;;;;;8.23;1.98;;;8.20;63.80;;;;;;5091298;28;20386;-73
2023/01/09 06:02:13;;;;;;;9.85;2.50;;;8.20;64.60;;;;;;5091040;28;20378;-73
2023/01/09 06:04:39;;;;;;;6.68;2.10;;;8.10;66.00;;;;;;5091518;28;20397;-72
2023/01/09 06:07:04;;;;;;;7.85;2.00;;;8.20;67.80;;;;;;5095086;28;20460;-73
2023/01/09 06:09:30;;;;;;;6.70;2.33;;;8.30;65.50;;;;;;5094909;28;20503;-74
2023/01/09 06:11:56;;;;;;;9.15;2.03;;;8.30;65.10;;;;;;5076614;28;20401;-75
2023/01/09 06:14:22;;;;;;;6.65;2.00;;;8.40;64.90;;;;;;5077273;28;20393;-74
2023/01/09 06:16:48;;;;;;;7.10;2.28;;;8.40;64.60;;;;;;5095016;28;20378;-74
2023/01/09 06:19:13;;;;;;;6.25;2.45;;;8.50;64.20;;;;;;5100183;28;20389;-73
2023/01/09 06:21:39;;;;;;;5.72;1.90;;;8.40;64.50;;;;;;5111182;28;20401;-73
2023/01/09 06:24:05;;;;;;;9.05;2.30;;;8.40;63.80;;;;;;5109353;28;20454;-74
2023/01/09 06:26:31;;;;;;;9.05;1.90;;;8.40;64.30;;;;;;5095107;28;20382;-72
2023/01/09 06:28:57;;;;;;;5.88;2.35;;;8.40;61.80;;;;;;5094302;28;20402;-73
2023/01/09 06:31:23;;;;;;;9.05;2.30;;;8.50;60.10;;;;;;5094041;28;20441;-73
2023/01/09 06:33:49;;;;;;;7.35;2.40;;;8.50;61.20;;;;;;5094514;28;20381;-75
2023/01/09 06:36:15;;;;;;;7.37;2.27;;;8.50;61.70;;;;;;5094611;28;20466;-72
2023/01/09 06:38:40;;;;;;;9.20;2.30;;;8.40;61.90;;;;;;5094025;28;20400;-75
2023/01/09 06:41:06;;;;;;;11.17;3.50;;;8.40;62.10;;;;;;5093797;28;20484;-73
2023/01/09 06:43:31;;;;;;;6.43;2.60;;;8.30;62.70;;;;;;5094130;28;20484;-74
2023/01/09 06:45:57;;;;;;;9.00;3.10;;;8.40;63.30;;;;;;5094472;28;20385;-74
2023/01/09 06:48:23;;;;;;;8.40;2.60;;;8.40;62.60;;;;;;5094289;28;20436;-74
2023/01/09 06:50:50;;;;;;;11.18;2.83;;;8.30;63.80;;;;;;5094569;28;20390;-73
2023/01/09 06:53:16;;;;;;;11.68;2.70;;;8.30;63.80;;;;;;5094576;28;20413;-73
2023/01/09 06:55:42;;;;;;;7.82;2.30;;;8.40;62.80;;;;;;5098503;28;20374;-72
2023/01/09 06:58:07;;;;;;;10.23;2.33;;;8.40;62.30;;;;;;5080870;28;20901;-74
2023/01/09 07:00:33;;;;;;;9.82;2.53;;;8.40;61.80;;;;;;5097153;28;20374;-72
2023/01/09 07:02:59;;;;;;;7.13;2.40;;;8.40;62.10;;;;;;5101431;28;20386;-75
2023/01/09 07:05:25;;;;;;;6.20;2.50;;;8.30;62.20;;;;;;5098172;28;20394;-75
2023/01/09 07:07:51;;;;;;;8.13;2.30;;;8.30;61.40;;;;;;5095047;28;20374;-74
2023/01/09 07:10:16;;;;;;;10.23;2.40;;;8.40;60.80;;;;;;5095775;28;20473;-75
2023/01/09 07:12:42;;;;;;;8.43;2.30;;;8.30;61.30;;;;;;5095004;28;20416;-72
2023/01/09 07:15:08;;;;;;;6.40;2.50;;;8.40;60.30;;;;;;5080907;28;20397;-71
2023/01/09 07:17:34;;;;;;;6.53;2.42;;;8.40;61.00;;;;;;5102326;28;20382;-71
2023/01/09 07:19:59;;;;;;;7.70;2.20;;;8.40;61.50;;;;;;5099263;28;20385;-71
2023/01/09 07:22:27;;;;;;;5.32;2.08;;;8.40;61.10;;;;;;5077883;28;20441;-72
2023/01/09 07:24:52;;;;;;;7.40;2.30;;;8.30;62.10;;;;;;5093983;28;20772;-73
2023/01/09 07:27:18;;;;;;;4.53;2.10;;;8.30;63.60;;;;;;5093443;28;20742;-72
2023/01/09 07:29:43;;;;;;;9.80;3.10;;;8.30;63.80;;;;;;5074020;28;20599;-72
2023/01/09 07:32:09;;;;;;;9.02;1.95;;;8.40;64.80;;;;;;5092158;28;20433;-71
2023/01/09 07:34:34;;;;;;;7.30;2.00;;;8.40;61.90;;;;;;5092662;28;20374;-73
2023/01/09 07:37:00;;;;;;;9.60;2.88;;;8.40;61.60;;;;;;5090190;28;20823;-78
2023/01/09 07:39:26;;;;;;;5.88;2.40;;;8.50;62.30;;;;;;5093452;28;20405;-73
2023/01/09 07:41:52;;;;;;;13.55;4.40;;;8.40;62.80;;;;;;5088084;28;20405;-70
2023/01/09 07:44:17;;;;;;;7.47;2.50;;;8.50;64.10;;;;;;5080143;28;20397;-72
2023/01/09 07:46:43;;;;;;;10.93;3.40;;;8.50;62.90;;;;;;5085264;28;20396;-72
2023/01/09 07:49:09;;;;;;;9.60;4.20;;;8.50;63.50;;;;;;5070514;28;20477;-71
2023/01/09 07:51:34;;;;;;;11.10;3.10;;;8.60;64.20;;;;;;5070741;28;20388;-72
2023/01/09 07:54:00;;;;;;;10.20;4.10;;;8.60;62.80;;;;;;5070075;28;20508;-70
2023/01/09 07:56:26;;;;;;;6.72;2.97;;;8.70;63.60;;;;;;5073227;28;20380;-70
2023/01/09 07:58:51;;;;;;;9.70;3.72;;;8.70;63.60;;;;;;5080462;28;20420;-71
2023/01/09 08:01:17;;;;;;;54.42;25.10;;;8.60;63.50;;;;;;5090007;28;20397;-73
2023/01/09 08:03:43;;;;;;;152.77;82.07;;;8.70;66.70;;;;;;5089784;28;20950;-72
2023/01/09 08:06:09;;;;;;;13.80;6.00;;;8.70;67.70;;;;;;5089891;28;20430;-71
2023/01/09 08:08:34;;;;;;;14.18;3.95;;;8.70;64.10;;;;;;5089468;28;20401;-70
2023/01/09 08:11:00;;;;;;;39.70;19.43;;;8.70;64.30;;;;;;5089813;28;20741;-71
2023/01/09 08:13:26;;;;;;;23.87;10.70;;;8.80;63.70;;;;;;5090352;28;20403;-72
2023/01/09 08:15:51;;;;;;;18.23;7.30;;;8.80;62.70;;;;;;5089901;28;20831;-72
2023/01/09 08:18:17;;;;;;;35.17;17.73;;;8.90;64.60;;;;;;5090349;28;20835;-70
2023/01/09 08:20:42;;;;;;;28.97;15.07;;;8.90;66.10;;;;;;5089065;28;20394;-71
2023/01/09 08:23:08;;;;;;;13.80;4.20;;;8.90;61.20;;;;;;5089332;28;20403;-71
2023/01/09 08:25:34;;;;;;;17.57;6.37;;;8.90;61.60;;;;;;5089924;28;20462;-72
2023/01/09 08:27:59;;;;;;;9.60;2.95;;;8.90;60.40;;;;;;5089053;28;20385;-72
2023/01/09 08:30:25;;;;;;;18.50;7.37;;;8.90;59.40;;;;;;5089477;28;20527;-70
2023/01/09 08:32:52;;;;;;;40.70;21.70;;;9.10;60.10;;;;;;5089054;28;20401;-71
2023/01/09 08:35:18;;;;;;;29.48;16.05;;;9.10;59.20;;;;;;5084994;28;20383;-73
2023/01/09 08:37:47;;;;;;;10.43;3.40;;;9.10;59.90;;;;;;5069860;28;20396;-72
2023/01/09 08:40:14;;;;;;;31.27;13.98;;;9.00;58.70;;;;;;5085985;28;20405;-72
2023/01/09 08:48:09;;;;;;;10.48;3.15;;;9.20;54.40;;;;;;5090261;28;20396;-73
2023/01/09 08:50:34;;;;;;;9.57;3.57;;;9.20;54.20;;;;;;5090097;28;20902;-74
2023/01/09 08:53:00;;;;;;;11.90;5.70;;;9.30;53.80;;;;;;5075597;28;20390;-74
2023/01/09 08:55:25;;;;;;;15.37;4.30;;;9.30;52.80;;;;;;5102609;28;20413;-74
2023/01/09 08:57:53;;;;;;;7.03;1.97;;;9.30;52.40;;;;;;5102499;28;20390;-74
2023/01/09 09:00:20;;;;;;;10.57;2.20;;;9.40;52.70;;;;;;5097095;28;20378;-73
2023/01/09 09:02:51;;;;;;;10.85;2.47;;;9.40;52.90;;;;;;5093612;28;20397;-75
2023/01/09 09:05:17;;;;;;;11.90;3.50;;;9.40;53.20;;;;;;5089495;28;20425;-75
2023/01/09 09:07:42;;;;;;;12.80;2.90;;;9.40;52.20;;;;;;5089598;28;20424;-75
2023/01/09 09:10:08;;;;;;;14.00;2.40;;;9.50;50.60;;;;;;5089224;28;20437;-74
2023/01/09 09:12:34;;;;;;;6.07;2.00;;;9.40;50.50;;;;;;5071186;28;20396;-73
2023/01/09 09:15:11;;;;;;;13.50;2.20;;;9.40;51.30;;;;;;5089146;28;20477;-74
2023/01/09 09:17:40;;;;;;;7.88;2.25;;;9.40;51.60;;;;;;5089414;28;20388;-74
2023/01/09 09:22:40;;;;;;;7.80;2.00;;;9.40;50.50;;;;;;5087020;28;20602;-76
2023/01/09 09:25:06;;;;;;;9.03;2.80;;;9.40;50.30;;;;;;5090355;28;20429;-76
2023/01/09 09:27:32;;;;;;;10.43;2.17;;;9.50;51.30;;;;;;5089953;28;20389;-76
2023/01/09 09:29:57;;;;;;;5.53;2.30;;;9.50;51.70;;;;;;5089642;28;20417;-77
2023/01/09 09:32:23;;;;;;;7.23;2.10;;;9.50;52.90;;;;;;5089260;28;20386;-76
2023/01/09 09:34:48;;;;;;;4.90;1.70;;;9.60;52.20;;;;;;5083476;28;20388;-76
2023/01/09 09:37:14;;;;;;;6.30;1.88;;;9.70;49.80;;;;;;5088088;28;20394;-76
2023/01/09 09:39:40;;;;;;;8.77;2.05;;;9.60;50.60;;;;;;5091555;28;20442;-76
2023/01/09 09:45:39;;;;;;;12.33;2.13;;;9.90;51.00;;;;;;5092932;28;20397;-76
2023/01/09 09:48:24;;;;;;;8.20;2.10;;;10.10;47.50;;;;;;5095080;28;20382;-76
2023/01/09 09:51:26;;;;;;;7.00;2.10;;;10.20;46.80;;;;;;5095098;28;20901;-76
2023/01/09 09:54:12;;;;;;;8.50;2.00;;;10.40;46.50;;;;;;5094192;28;20409;-77
2023/01/09 09:56:50;;;;;;;7.55;1.73;;;10.40;46.00;;;;;;5095157;28;20370;-77
2023/01/09 09:59:25;;;;;;;3.60;1.60;;;10.40;46.40;;;;;;5094801;28;20382;-76
2023/01/09 10:01:56;;;;;;;7.30;1.80;;;10.30;46.70;;;;;;5094300;28;20382;-77
2023/01/09 10:04:24;;;;;;;7.75;2.15;;;10.20;45.90;;;;;;5094301;28;20393;-77
2023/01/09 10:06:55;;;;;;;4.80;1.60;;;10.10;47.90;;;;;;5094373;28;20389;-76
2023/01/09 10:09:49;;;;;;;6.25;1.80;;;10.00;48.20;;;;;;5094940;28;20473;-77
2023/01/09 10:12:24;;;;;;;9.68;1.70;;;10.00;48.70;;;;;;5094379;28;20370;-76
2023/01/09 10:14:50;;;;;;;9.75;1.70;;;9.90;49.40;;;;;;5076491;28;20481;-76
2023/01/09 10:17:24;;;;;;;9.00;1.80;;;9.90;49.80;;;;;;5094765;28;20470;-76
2023/01/09 10:20:20;;;;;;;4.45;1.60;;;9.90;49.40;;;;;;5094288;28;20385;-76
2023/01/09 10:23:01;;;;;;;7.30;1.90;;;9.80;50.60;;;;;;5094408;28;20390;-76
2023/01/09 10:25:41;;;;;;;8.90;1.92;;;9.90;48.80;;;;;;5094839;28;20668;-76
2023/01/09 10:28:34;;;;;;;9.02;2.10;;;10.00;48.30;;;;;;5093733;28;20431;-77
2023/01/09 10:31:11;;;;;;;7.47;1.88;;;10.00;47.40;;;;;;5094341;28;20381;-77
2023/01/09 10:33:54;;;;;;;8.30;1.88;;;10.00;47.80;;;;;;5094600;28;20409;-76
2023/01/09 10:36:38;;;;;;;6.45;1.70;;;9.90;48.70;;;;;;5093541;28;20834;-77
2023/01/09 10:39:11;;;;;;;6.38;1.90;;;9.90;49.40;;;;;;5093785;28;20374;-76
2023/01/09 10:41:55;;;;;;;7.30;2.08;;;9.90;48.90;;;;;;5093601;28;20379;-76
2023/01/09 10:44:35;;;;;;;5.60;2.00;;;9.90;49.50;;;;;;5093725;28;20382;-76
2023/01/09 10:47:04;;;;;;;7.30;1.80;;;9.80;49.90;;;;;;5093490;28;20409;-76
2023/01/09 10:49:30;;;;;;;6.25;1.80;;;9.80;49.80;;;;;;5093545;28;20412;-76
2023/01/09 10:52:19;;;;;;;8.15;1.55;;;9.80;49.50;;;;;;5093033;28;20374;-76
2023/01/09 10:55:01;;;;;;;8.60;2.00;;;9.80;49.50;;;;;;5093691;28;20378;-76
2023/01/09 10:57:33;;;;;;;7.53;1.70;;;9.80;50.10;;;;;;5075483;28;20386;-76
2023/01/09 10:59:58;;;;;;;3.83;1.60;;;9.90;49.80;;;;;;5093650;28;20393;-77
2023/01/09 11:02:31;;;;;;;6.27;1.67;;;9.90;49.50;;;;;;5093292;28;20503;-76
2023/01/09 11:04:57;;;;;;;4.03;1.67;;;10.00;48.60;;;;;;5093051;28;20378;-77
2023/01/09 11:07:34;;;;;;;10.03;2.20;;;10.00;49.70;;;;;;5092984;28;20390;-76
2023/01/09 11:10:07;;;;;;;5.68;1.42;;;10.00;49.10;;;;;;5092932;28;20819;-77
2023/01/09 11:12:34;;;;;;;10.88;2.20;;;10.10;49.80;;;;;;5093318;28;20375;-76
2023/01/09 11:15:15;;;;;;;6.05;1.70;;;10.10;49.20;;;;;;5093247;28;20386;-77
2023/01/09 11:17:49;;;;;;;7.38;1.90;;;10.20;49.10;;;;;;5092805;28;20382;-77
2023/01/09 11:20:24;;;;;;;5.28;1.92;;;10.30;47.70;;;;;;5091946;28;20387;-76
2023/01/09 11:22:53;;;;;;;4.80;1.88;;;10.40;46.30;;;;;;5092476;28;20386;-75
2023/01/09 11:25:21;;;;;;;5.25;1.63;;;10.40;46.30;;;;;;5089352;28;20398;-76
2023/01/09 11:28:03;;;;;;;6.88;1.90;;;10.50;45.10;;;;;;5071755;28;20739;-76
2023/01/09 11:30:49;;;;;;;5.80;1.77;;;10.50;44.00;;;;;;5078456;28;20401;-73
2023/01/09 11:33:19;;;;;;;8.95;2.15;;;10.60;44.10;;;;;;5089341;28;20390;-73
2023/01/09 11:35:59;;;;;;;5.65;2.60;;;10.70;43.50;;;;;;5092380;28;20381;-73
2023/01/09 11:38:25;;;;;;;5.50;1.80;;;10.70;42.50;;;;;;5090246;28;20471;-72
2023/01/09 11:40:56;;;;;;;7.53;2.30;;;10.60;42.90;;;;;;5089762;28;20388;-73
2023/01/09 11:43:34;;;;;;;7.20;1.70;;;10.50;42.70;;;;;;5073671;28;20399;-72
2023/01/09 11:46:22;;;;;;;6.28;1.83;;;10.40;43.40;;;;;;5071552;28;20848;-72
2023/01/09 11:48:55;;;;;;;5.77;1.70;;;10.40;44.50;;;;;;5071240;28;20481;-72
2023/01/09 11:51:33;;;;;;;6.15;2.00;;;10.40;44.40;;;;;;5069439;28;20556;-72
2023/01/09 11:54:13;;;;;;;6.10;1.80;;;10.30;44.40;;;;;;5069098;28;20395;-73
2023/01/09 11:56:40;;;;;;;7.93;1.60;;;10.30;44.30;;;;;;5069252;28;20436;-71
2023/01/09 11:59:14;;;;;;;6.17;1.50;;;10.10;44.90;;;;;;5068949;28;20462;-72
2023/01/09 12:02:12;;;;;;;7.85;1.70;;;10.10;43.80;;;;;;5068409;28;20387;-73
2023/01/09 12:04:59;;;;;;;4.53;1.60;;;10.00;46.50;;;;;;5069026;28;20879;-72
2023/01/09 12:07:43;;;;;;;2.75;1.50;;;10.10;44.40;;;;;;5068916;28;20384;-72
2023/01/09 12:10:24;;;;;;;5.10;1.52;;;10.10;45.40;;;;;;5068961;28;20757;-72
2023/01/09 12:13:14;;;;;;;7.07;1.98;;;10.00;44.50;;;;;;5070266;28;20436;-72
2023/01/09 12:16:01;;;;;;;4.88;1.50;;;9.90;46.00;;;;;;5086980;28;20385;-72
2023/01/09 12:19:02;;;;;;;3.17;1.50;;;9.80;46.10;;;;;;5070687;28;20403;-72
2023/01/09 12:21:55;;;;;;;6.10;1.30;;;9.90;45.50;;;;;;5088316;28;20401;-72
2023/01/09 12:24:37;;;;;;;3.35;1.60;;;10.00;44.30;;;;;;5073667;28;20387;-75
2023/01/09 12:27:22;;;;;;;3.83;1.53;;;9.90;44.30;;;;;;5068344;28;20447;-73
2023/01/09 12:30:15;;;;;;;5.97;1.30;;;9.90;43.90;;;;;;5072398;28;20426;-72
2023/01/09 12:32:57;;;;;;;3.57;1.70;;;10.00;44.00;;;;;;5072204;28;20371;-73
2023/01/09 12:36:05;;;;;;;4.05;1.88;;;10.00;43.90;;;;;;5072339;28;20447;-74
2023/01/09 12:38:47;;;;;;;6.90;1.75;;;9.90;44.60;;;;;;5062321;28;20392;-73
2023/01/09 12:41:34;;;;;;;3.78;1.40;;;9.80;46.00;;;;;;5072571;28;20372;-72
2023/01/09 12:44:15;;;;;;;5.30;1.40;;;9.80;45.40;;;;;;5084102;28;20453;-72
2023/01/09 12:46:53;;;;;;;5.63;1.50;;;9.80;45.00;;;;;;5090278;28;20382;-73
2023/01/09 12:49:24;;;;;;;3.85;1.65;;;9.90;45.40;;;;;;5089050;28;20405;-73
2023/01/09 12:52:02;;;;;;;5.28;1.63;;;9.90;45.40;;;;;;5089459;28;20370;-72
2023/01/09 12:54:35;;;;;;;2.60;1.50;;;9.90;44.60;;;;;;5088753;28;20385;-73
2023/01/09 12:57:16;;;;;;;5.13;2.00;;;9.80;45.40;;;;;;5089361;28;20386;-72
2023/01/09 12:59:47;;;;;;;4.23;2.30;;;9.80;45.30;;;;;;5089347;28;20422;-74
2023/01/09 13:02:18;;;;;;;4.30;1.70;;;9.70;47.40;;;;;;5088123;28;20762;-74
2023/01/09 13:05:28;;;;;;;6.03;2.10;;;9.70;47.00;;;;;;5088921;28;20766;-74
2023/01/09 13:08:04;;;;;;;7.40;1.80;;;9.60;48.10;;;;;;5068238;28;20474;-73
2023/01/09 13:10:49;;;;;;;4.70;2.10;;;9.60;49.20;;;;;;5068015;28;20399;-73
2023/01/09 13:13:28;;;;;;;5.28;2.00;;;9.70;49.60;;;;;;5057267;28;20401;-73
2023/01/09 13:16:04;;;;;;;6.00;2.00;;;9.90;47.30;;;;;;5085049;28;20978;-74
2023/01/09 13:18:42;;;;;;;8.85;2.10;;;9.90;47.10;;;;;;5092397;28;20382;-73
2023/01/09 13:21:10;;;;;;;9.07;2.05;;;10.00;46.70;;;;;;5094747;28;20881;-72
2023/01/09 13:23:55;;;;;;;5.60;2.00;;;10.00;45.50;;;;;;5095285;28;20875;-73
2023/01/09 13:26:25;;;;;;;5.97;1.77;;;10.00;46.10;;;;;;5094891;28;20377;-73